Time;durP1;ratioP1;P1;durP2;ratioP2;P2;SDS_P1;SDS_P2;PMS_P1;PMS_P2;Temp;Humidity;BMP_temperature;BMP_pressure;BME280_temperature;BME280_humidity;BME280_pressure;Samples;Min_cycle;Max_cycle;Signal;HPM_P1;HPM_P2
2022/08/22 00:00:16;;;;;;;5.93;4.50;;;25.80;45.20;;;;;;4944816;28;20263;-46
2022/08/22 00:03:06;;;;;;;4.17;3.83;;;25.80;45.40;;;;;;4950691;29;20454;-47
2022/08/22 00:05:43;;;;;;;4.10;3.70;;;25.80;45.60;;;;;;4941009;28;20498;-46
2022/08/22 00:08:29;;;;;;;4.50;3.90;;;25.70;45.70;;;;;;4949258;28;20486;-45
2022/08/22 00:11:26;;;;;;;5.00;3.90;;;25.80;45.70;;;;;;4945641;29;20499;-45
2022/08/22 00:14:14;;;;;;;5.03;4.40;;;25.80;45.60;;;;;;4929152;28;20570;-46
2022/08/22 00:17:09;;;;;;;5.33;4.30;;;25.80;45.30;;;;;;4945483;28;20975;-46
2022/08/22 00:20:04;;;;;;;4.87;4.00;;;25.90;44.90;;;;;;4948582;28;20483;-49
2022/08/22 00:22:42;;;;;;;4.43;3.83;;;25.80;45.20;;;;;;4945989;28;20443;-47
2022/08/22 00:25:35;;;;;;;4.23;3.93;;;25.70;45.60;;;;;;4949346;28;20558;-46
2022/08/22 00:28:42;;;;;;;6.33;4.30;;;25.60;45.60;;;;;;4946459;28;20467;-45
2022/08/22 00:31:21;;;;;;;9.07;4.30;;;25.60;45.40;;;;;;4920692;28;20835;-48
2022/08/22 00:34:09;;;;;;;4.73;4.43;;;25.50;45.60;;;;;;4945177;28;20465;-46
2022/08/22 00:36:50;;;;;;;5.37;3.73;;;25.40;45.90;;;;;;4947029;28;20443;-45
2022/08/22 00:39:32;;;;;;;4.40;4.00;;;25.40;46.10;;;;;;4941267;28;20610;-46
2022/08/22 00:42:33;;;;;;;6.47;4.37;;;25.40;46.30;;;;;;4942955;28;20478;-47
2022/08/22 00:45:34;;;;;;;5.43;4.20;;;25.40;46.10;;;;;;4944774;28;20487;-46
2022/08/22 00:48:21;;;;;;;6.30;4.20;;;25.40;46.10;;;;;;4930808;28;20547;-46
2022/08/22 00:50:59;;;;;;;5.27;4.10;;;25.30;46.20;;;;;;4947342;28;20462;-46
2022/08/22 00:53:45;;;;;;;7.53;4.30;;;25.30;46.30;;;;;;4950279;28;20447;-46
2022/08/22 00:56:48;;;;;;;4.87;4.03;;;25.20;46.40;;;;;;4946496;28;20490;-45
2022/08/22 00:59:49;;;;;;;5.90;4.60;;;25.20;46.50;;;;;;4948075;29;20490;-46
2022/08/22 01:02:26;;;;;;;5.37;3.60;;;25.10;46.70;;;;;;4948689;28;20990;-46
2022/08/22 01:05:16;;;;;;;7.07;4.43;;;25.10;46.80;;;;;;4944188;28;20467;-46
2022/08/22 01:08:01;;;;;;;5.10;4.00;;;25.00;47.40;;;;;;4947240;28;20458;-47
2022/08/22 01:11:12;;;;;;;5.03;4.13;;;25.00;47.10;;;;;;4944133;28;20494;-46
2022/08/22 01:14:15;;;;;;;4.80;4.40;;;25.00;47.30;;;;;;4935051;28;20602;-47
2022/08/22 01:16:54;;;;;;;10.37;4.50;;;24.90;47.30;;;;;;4944344;28;20459;-45
2022/08/22 01:19:48;;;;;;;6.27;4.70;;;24.80;47.30;;;;;;4944380;28;20987;-46
2022/08/22 01:22:47;;;;;;;4.97;4.47;;;24.80;47.40;;;;;;4944540;28;20870;-46
2022/08/22 01:25:32;;;;;;;5.80;5.30;;;24.80;47.40;;;;;;4941165;28;20503;-46
2022/08/22 01:28:23;;;;;;;7.13;4.30;;;24.80;47.50;;;;;;4943594;28;20546;-47
2022/08/22 01:31:03;;;;;;;5.10;4.37;;;24.70;47.50;;;;;;4948073;28;20455;-47
2022/08/22 01:34:17;;;;;;;6.37;4.40;;;24.70;47.60;;;;;;4946006;28;20491;-46
2022/08/22 01:37:05;;;;;;;3.83;3.53;;;24.60;47.90;;;;;;4942305;28;20454;-46
2022/08/22 01:39:42;;;;;;;4.50;3.90;;;24.50;47.90;;;;;;4941055;28;20484;-47
2022/08/22 01:42:35;;;;;;;6.00;4.33;;;24.50;48.10;;;;;;4947419;28;20445;-47
2022/08/22 01:45:29;;;;;;;4.67;4.27;;;24.40;48.50;;;;;;4940463;28;20455;-46
2022/08/22 01:48:06;;;;;;;5.00;4.50;;;24.30;48.80;;;;;;4940387;28;20531;-45
2022/08/22 01:51:15;;;;;;;6.33;4.50;;;24.30;48.60;;;;;;4943299;28;20450;-45
2022/08/22 01:53:46;;;;;;;5.13;4.50;;;24.40;48.60;;;;;;4938054;29;20537;-46
2022/08/22 01:56:16;;;;;;;7.30;5.00;;;24.40;48.50;;;;;;4945407;28;20919;-46
2022/08/22 01:59:02;;;;;;;5.13;3.97;;;24.50;48.10;;;;;;4945510;29;20436;-46
2022/08/22 02:01:44;;;;;;;4.60;4.20;;;24.40;48.20;;;;;;4947106;29;20868;-47
2022/08/22 02:04:37;;;;;;;4.83;4.10;;;24.40;48.40;;;;;;4946065;28;20583;-46
2022/08/22 02:07:21;;;;;;;4.87;4.37;;;24.40;48.40;;;;;;4944332;29;20826;-46
2022/08/22 02:09:52;;;;;;;6.20;4.40;;;24.40;48.20;;;;;;4944964;28;20517;-45
2022/08/22 02:12:47;;;;;;;5.33;4.90;;;24.30;48.30;;;;;;4948552;28;20443;-45
2022/08/22 02:15:13;;;;;;;5.10;4.60;;;24.30;48.40;;;;;;4941821;28;20610;-46
2022/08/22 02:18:03;;;;;;;5.03;4.10;;;24.20;48.30;;;;;;4948857;28;20526;-45
2022/08/22 02:20:46;;;;;;;5.50;4.60;;;24.20;48.90;;;;;;4944453;28;20223;-45
2022/08/22 02:23:33;;;;;;;5.23;4.73;;;24.10;48.60;;;;;;4946659;29;20443;-46
2022/08/22 02:26:01;;;;;;;5.50;5.00;;;23.80;49.40;;;;;;4944452;28;20455;-46
2022/08/22 02:28:56;;;;;;;4.80;4.30;;;23.90;49.30;;;;;;4950856;28;20454;-46
2022/08/22 02:31:28;;;;;;;4.20;3.80;;;23.80;49.60;;;;;;4946453;28;20538;-47
2022/08/22 02:34:00;;;;;;;4.50;4.20;;;23.80;49.50;;;;;;4940665;28;20448;-47
2022/08/22 02:36:40;;;;;;;4.60;4.30;;;23.80;49.60;;;;;;4944058;28;20511;-48
2022/08/22 02:39:27;;;;;;;5.00;4.60;;;23.80;49.80;;;;;;4948424;28;20479;-46
2022/08/22 02:42:13;;;;;;;5.00;4.40;;;23.80;49.70;;;;;;4947820;28;20479;-51
2022/08/22 02:44:46;;;;;;;4.87;4.47;;;23.70;50.30;;;;;;4948991;29;20897;-49
2022/08/22 02:47:25;;;;;;;4.70;4.20;;;23.60;49.60;;;;;;4948675;28;20536;-47
2022/08/22 02:49:58;;;;;;;5.60;4.20;;;23.60;49.80;;;;;;4948596;28;20447;-50
2022/08/22 02:52:27;;;;;;;4.90;4.50;;;23.70;49.80;;;;;;4941717;28;20502;-48
2022/08/22 02:55:07;;;;;;;4.47;4.03;;;23.70;49.70;;;;;;4946027;28;20519;-50
2022/08/22 02:57:51;;;;;;;4.57;4.17;;;23.80;50.00;;;;;;4950345;28;20830;-50
2022/08/22 03:00:23;;;;;;;5.80;4.40;;;23.80;49.80;;;;;;4948546;28;20566;-51
2022/08/22 03:03:12;;;;;;;4.27;3.80;;;23.80;49.80;;;;;;4948555;28;20456;-47
2022/08/22 03:05:37;;;;;;;5.40;4.63;;;23.90;49.60;;;;;;4932976;28;20491;-49
2022/08/22 03:08:19;;;;;;;6.03;5.00;;;23.90;49.40;;;;;;4946832;28;20929;-46
2022/08/22 03:10:55;;;;;;;6.53;4.73;;;24.00;49.20;;;;;;4948529;28;20289;-47
2022/08/22 03:13:40;;;;;;;4.73;4.33;;;23.80;49.30;;;;;;4948210;28;20511;-47
2022/08/22 03:16:15;;;;;;;4.63;4.20;;;23.80;49.50;;;;;;4951966;28;20502;-47
2022/08/22 03:18:51;;;;;;;4.80;4.30;;;23.30;50.20;;;;;;4950233;28;20454;-50
2022/08/22 03:21:35;;;;;;;5.00;3.87;;;23.30;51.00;;;;;;4948345;28;20459;-49
2022/08/22 03:24:06;;;;;;;5.37;4.40;;;23.30;50.50;;;;;;4951746;28;20857;-50
2022/08/22 03:26:41;;;;;;;10.37;4.43;;;23.40;50.60;;;;;;4950563;28;20444;-46
2022/08/22 03:29:27;;;;;;;4.43;3.77;;;23.50;50.30;;;;;;4947309;28;21006;-45
2022/08/22 03:32:11;;;;;;;5.57;4.97;;;23.60;50.20;;;;;;4950015;28;21121;-46
2022/08/22 03:34:37;;;;;;;4.90;4.40;;;23.60;49.90;;;;;;4950282;28;20447;-49
2022/08/22 03:37:09;;;;;;;5.27;4.77;;;23.70;49.80;;;;;;4951778;28;20827;-47
2022/08/22 03:39:45;;;;;;;6.50;4.90;;;23.70;49.60;;;;;;4947212;28;20626;-47
2022/08/22 03:42:34;;;;;;;4.70;4.30;;;23.70;49.90;;;;;;4950112;28;21236;-47
2022/08/22 03:45:09;;;;;;;4.63;4.23;;;23.70;49.70;;;;;;4948616;28;20486;-49
2022/08/22 03:47:57;;;;;;;5.33;4.83;;;23.80;49.50;;;;;;4949348;28;21010;-49
2022/08/22 03:50:54;;;;;;;4.80;4.40;;;23.80;49.60;;;;;;4946653;28;20459;-47
2022/08/22 03:53:27;;;;;;;4.43;4.03;;;23.50;49.70;;;;;;4946495;28;20458;-49
2022/08/22 03:56:37;;;;;;;7.27;5.00;;;23.50;50.00;;;;;;4950784;28;20507;-50
2022/08/22 03:59:20;;;;;;;5.00;4.50;;;23.40;49.90;;;;;;4940434;28;20468;-49
2022/08/22 04:02:20;;;;;;;5.17;4.77;;;23.30;50.40;;;;;;4946398;28;20448;-49
2022/08/22 04:05:09;;;;;;;5.17;4.67;;;23.40;50.20;;;;;;4942593;28;20539;-49
2022/08/22 04:07:56;;;;;;;8.63;5.63;;;23.50;50.30;;;;;;4950142;28;20444;-47
2022/08/22 04:10:43;;;;;;;6.03;5.23;;;23.50;50.00;;;;;;4945192;28;20452;-49
2022/08/22 04:13:47;;;;;;;6.43;4.50;;;23.50;49.70;;;;;;4943448;28;20515;-47
2022/08/22 04:16:44;;;;;;;5.10;3.87;;;23.50;49.30;;;;;;4948301;28;20520;-47
2022/08/22 04:19:23;;;;;;;8.00;4.40;;;23.50;49.80;;;;;;4943610;28;20495;-50
2022/08/22 04:22:32;;;;;;;4.90;4.07;;;23.50;50.00;;;;;;4949223;28;20447;-49
2022/08/22 04:25:24;;;;;;;5.07;3.83;;;23.60;49.70;;;;;;4940390;28;20467;-48
2022/08/22 04:28:18;;;;;;;5.33;4.27;;;23.60;49.90;;;;;;4949060;28;20459;-45
2022/08/22 04:31:13;;;;;;;5.60;4.60;;;23.60;49.80;;;;;;4943651;28;20448;-50
2022/08/22 04:33:47;;;;;;;4.23;3.83;;;23.70;49.70;;;;;;4943913;28;20494;-49
2022/08/22 04:36:25;;;;;;;8.60;4.30;;;23.70;49.50;;;;;;4940660;29;20981;-46
2022/08/22 04:39:13;;;;;;;4.13;3.70;;;23.80;49.40;;;;;;4947823;28;20534;-50
2022/08/22 04:41:47;;;;;;;5.53;4.40;;;23.80;49.00;;;;;;4941748;28;20459;-49
2022/08/22 04:44:45;;;;;;;7.87;5.20;;;23.80;49.10;;;;;;4941636;28;20574;-46
2022/08/22 04:47:42;;;;;;;4.43;4.03;;;23.90;48.90;;;;;;4937688;28;21696;-46
2022/08/22 04:50:50;;;;;;;4.77;4.37;;;23.80;48.80;;;;;;4942653;28;20463;-49
2022/08/22 04:53:34;;;;;;;9.63;5.33;;;23.80;48.90;;;;;;4947092;29;20498;-49
2022/08/22 04:56:12;;;;;;;4.60;4.20;;;23.80;48.70;;;;;;4945685;29;20486;-50
2022/08/22 04:58:41;;;;;;;5.50;4.57;;;23.80;48.70;;;;;;4947165;28;21701;-46
2022/08/22 05:01:13;;;;;;;4.40;4.00;;;23.80;48.80;;;;;;4943635;29;20514;-49
2022/08/22 05:03:50;;;;;;;5.10;4.27;;;23.80;48.70;;;;;;4944854;28;20527;-50
2022/08/22 05:06:18;;;;;;;4.93;4.20;;;23.80;48.80;;;;;;4938935;28;20443;-46
2022/08/22 05:08:47;;;;;;;5.00;4.60;;;23.90;48.90;;;;;;4943824;28;20447;-49
2022/08/22 05:11:17;;;;;;;5.20;4.80;;;23.90;48.80;;;;;;4944558;28;20474;-49
2022/08/22 05:13:47;;;;;;;15.10;4.83;;;23.70;49.00;;;;;;4943461;28;20479;-46
2022/08/22 05:16:19;;;;;;;7.90;4.63;;;23.50;49.60;;;;;;4942763;28;20818;-50
2022/08/22 05:18:49;;;;;;;5.30;4.50;;;23.40;49.80;;;;;;4943420;28;20483;-49
2022/08/22 05:21:19;;;;;;;4.77;4.37;;;23.40;49.60;;;;;;4938816;28;20659;-46
2022/08/22 05:24:10;;;;;;;5.30;4.70;;;23.50;49.40;;;;;;4949323;28;20463;-46
2022/08/22 05:26:46;;;;;;;4.93;4.43;;;23.40;49.40;;;;;;4939060;28;20451;-47
2022/08/22 05:29:16;;;;;;;5.33;4.70;;;23.40;49.50;;;;;;4943358;28;20455;-47
2022/08/22 05:31:54;;;;;;;5.20;4.80;;;23.40;49.70;;;;;;4942349;28;20443;-47
2022/08/22 05:34:27;;;;;;;5.23;4.67;;;23.10;50.30;;;;;;4947115;28;20455;-49
2022/08/22 05:37:10;;;;;;;6.50;5.07;;;22.90;50.90;;;;;;4952067;28;20863;-49
2022/08/22 05:39:39;;;;;;;9.23;5.67;;;22.70;51.20;;;;;;4947496;28;20495;-47
2022/08/22 05:42:31;;;;;;;6.90;5.43;;;22.50;51.80;;;;;;4955116;28;20467;-47
2022/08/22 05:45:00;;;;;;;7.60;5.23;;;22.20;52.60;;;;;;4953137;28;20451;-47
2022/08/22 05:47:32;;;;;;;5.40;4.90;;;22.10;52.90;;;;;;4955423;28;20439;-49
2022/08/22 05:50:01;;;;;;;5.33;4.90;;;22.00;53.50;;;;;;4949573;28;20451;-46
2022/08/22 05:52:49;;;;;;;5.37;4.77;;;22.00;53.50;;;;;;4953315;28;20455;-49
2022/08/22 05:55:14;;;;;;;6.07;5.20;;;21.80;54.10;;;;;;4952561;28;20482;-49
2022/08/22 05:57:45;;;;;;;5.47;4.97;;;21.60;54.20;;;;;;4950836;28;21381;-46
2022/08/22 06:00:16;;;;;;;5.50;5.03;;;21.60;54.60;;;;;;4950551;28;20603;-50
2022/08/22 06:03:00;;;;;;;5.70;5.20;;;20.70;56.50;;;;;;4952787;28;20579;-45
2022/08/22 06:05:29;;;;;;;5.83;5.27;;;20.60;57.60;;;;;;4951580;29;20440;-48
2022/08/22 06:08:12;;;;;;;5.67;5.13;;;20.80;57.50;;;;;;4955296;29;20436;-48
2022/08/22 06:10:44;;;;;;;6.20;5.60;;;20.60;57.40;;;;;;4953068;28;20463;-47
2022/08/22 06:13:32;;;;;;;8.57;5.33;;;20.40;58.40;;;;;;4954061;28;20537;-49
2022/08/22 06:16:07;;;;;;;5.23;4.40;;;20.60;58.20;;;;;;4951549;28;20471;-49
2022/08/22 06:18:36;;;;;;;6.33;4.80;;;20.60;58.10;;;;;;4951145;28;20794;-49
2022/08/22 06:21:07;;;;;;;7.70;5.57;;;20.70;58.00;;;;;;4951688;28;21137;-48
2022/08/22 06:23:55;;;;;;;5.60;5.10;;;20.90;57.60;;;;;;4952395;28;20499;-48
2022/08/22 06:26:24;;;;;;;5.87;5.00;;;21.00;56.90;;;;;;4952551;28;20486;-46
2022/08/22 06:28:54;;;;;;;6.83;5.20;;;21.10;57.30;;;;;;4951364;28;20534;-47
2022/08/22 06:31:42;;;;;;;5.30;4.80;;;21.40;56.50;;;;;;4950890;28;20454;-50
2022/08/22 06:34:10;;;;;;;6.93;5.27;;;21.60;56.20;;;;;;4953384;29;20534;-47
2022/08/22 06:36:40;;;;;;;4.90;4.50;;;21.80;56.20;;;;;;4954983;29;20435;-49
2022/08/22 06:39:20;;;;;;;5.33;4.83;;;22.00;55.20;;;;;;4953809;29;20471;-47
2022/08/22 06:41:51;;;;;;;5.83;4.90;;;22.20;54.80;;;;;;4953356;29;20466;-51
2022/08/22 06:44:21;;;;;;;5.07;4.60;;;22.10;54.70;;;;;;4954123;29;20534;-49
2022/08/22 06:46:51;;;;;;;6.20;4.60;;;22.20;54.40;;;;;;4952386;28;20423;-51
2022/08/22 06:49:17;;;;;;;5.10;4.47;;;22.30;54.20;;;;;;4953793;29;20966;-52
2022/08/22 06:51:44;;;;;;;7.83;4.60;;;22.40;53.80;;;;;;4953873;29;20450;-50
2022/08/22 06:54:24;;;;;;;4.83;4.30;;;22.60;53.40;;;;;;4953953;29;20427;-50
2022/08/22 06:56:51;;;;;;;4.60;4.20;;;23.00;52.80;;;;;;4953940;29;20583;-48
2022/08/22 06:59:22;;;;;;;5.93;4.50;;;23.10;52.00;;;;;;4953626;29;20502;-52
2022/08/22 07:01:58;;;;;;;4.40;3.93;;;23.30;51.70;;;;;;4953396;28;20448;-51
2022/08/22 07:04:25;;;;;;;5.67;4.70;;;23.50;51.90;;;;;;4952378;29;20451;-50
2022/08/22 07:06:53;;;;;;;6.20;4.50;;;23.30;51.90;;;;;;4952549;29;20443;-51
2022/08/22 07:09:27;;;;;;;6.37;4.90;;;23.00;52.00;;;;;;4953617;29;20518;-50
2022/08/22 07:11:56;;;;;;;6.80;4.00;;;23.00;51.80;;;;;;4953392;29;20871;-50
2022/08/22 07:14:30;;;;;;;6.10;4.20;;;23.30;52.10;;;;;;4949194;28;20522;-48
2022/08/22 07:17:00;;;;;;;4.83;4.33;;;23.50;51.00;;;;;;4943347;28;20530;-51
2022/08/22 07:19:32;;;;;;;5.10;4.20;;;23.90;50.70;;;;;;4951816;28;20475;-51
2022/08/22 07:22:08;;;;;;;5.73;4.37;;;24.10;50.10;;;;;;4953369;28;20518;-51
2022/08/22 07:24:35;;;;;;;6.00;4.57;;;24.40;49.80;;;;;;4952432;28;20446;-51
2022/08/22 07:27:18;;;;;;;4.73;3.70;;;24.80;49.20;;;;;;4949323;28;20539;-51
2022/08/22 07:30:01;;;;;;;5.10;4.53;;;25.00;48.30;;;;;;4950195;28;20959;-51
2022/08/22 07:32:42;;;;;;;4.40;4.00;;;25.10;47.80;;;;;;4952477;28;20824;-51
2022/08/22 07:35:19;;;;;;;6.80;4.70;;;25.20;47.80;;;;;;4951028;29;20447;-49
2022/08/22 07:38:12;;;;;;;6.17;4.83;;;25.40;47.70;;;;;;4952722;29;20861;-47
2022/08/22 07:41:02;;;;;;;5.00;4.50;;;25.60;47.40;;;;;;4949356;29;20987;-47
2022/08/22 07:43:30;;;;;;;5.27;4.30;;;25.90;47.00;;;;;;4953578;29;20988;-47
2022/08/22 07:46:03;;;;;;;5.30;4.80;;;26.10;46.20;;;;;;4953431;29;20428;-47
2022/08/22 07:48:44;;;;;;;4.70;4.03;;;26.30;46.10;;;;;;4953944;29;20455;-48
2022/08/22 07:51:14;;;;;;;5.03;4.63;;;26.40;46.10;;;;;;4951932;29;20451;-47
2022/08/22 07:53:39;;;;;;;4.90;4.40;;;26.60;45.80;;;;;;4950944;29;20440;-47
2022/08/22 07:56:10;;;;;;;5.63;5.13;;;26.70;45.40;;;;;;4952008;29;20447;-48
2022/08/22 07:58:38;;;;;;;4.77;4.30;;;26.80;45.50;;;;;;4952330;28;20192;-49
2022/08/22 08:01:08;;;;;;;5.40;5.00;;;26.90;45.10;;;;;;4952304;29;21001;-49
2022/08/22 08:03:35;;;;;;;5.33;4.90;;;27.10;45.00;;;;;;4950001;28;20489;-47
2022/08/22 08:06:02;;;;;;;6.20;5.37;;;27.30;45.00;;;;;;4950241;29;20453;-48
2022/08/22 08:08:43;;;;;;;5.53;5.03;;;27.40;44.30;;;;;;4949606;29;20451;-48
2022/08/22 08:11:15;;;;;;;5.57;5.17;;;27.70;44.30;;;;;;4952248;29;20533;-47
2022/08/22 08:13:46;;;;;;;5.67;5.00;;;27.80;44.00;;;;;;4952903;29;20511;-48
2022/08/22 08:16:21;;;;;;;3.93;3.60;;;27.90;43.90;;;;;;4950197;29;20439;-47
2022/08/22 08:18:49;;;;;;;5.43;4.93;;;28.20;43.60;;;;;;4951900;29;20479;-49
2022/08/22 08:21:24;;;;;;;5.40;4.90;;;28.40;43.40;;;;;;4952701;29;20451;-47
2022/08/22 08:23:52;;;;;;;5.20;4.80;;;28.60;42.90;;;;;;4953219;29;20499;-48
2022/08/22 08:26:26;;;;;;;5.33;4.93;;;28.70;42.50;;;;;;4952495;29;20428;-47
2022/08/22 08:28:55;;;;;;;4.90;4.50;;;28.80;42.40;;;;;;4950983;29;20939;-51
2022/08/22 08:31:37;;;;;;;5.70;5.30;;;28.90;42.30;;;;;;4952745;29;20923;-50
2022/08/22 08:34:20;;;;;;;5.23;4.83;;;29.00;42.10;;;;;;4952126;29;20861;-48
2022/08/22 08:36:59;;;;;;;5.27;4.77;;;29.10;42.10;;;;;;4950508;28;20447;-50
2022/08/22 08:39:35;;;;;;;5.00;4.60;;;29.10;41.50;;;;;;4950053;28;20502;-48
2022/08/22 08:42:21;;;;;;;4.63;4.20;;;29.20;41.30;;;;;;4951320;28;20884;-49
2022/08/22 08:45:10;;;;;;;5.60;5.07;;;29.20;41.50;;;;;;4944738;28;20467;-48
2022/08/22 08:47:53;;;;;;;5.40;5.00;;;29.30;41.80;;;;;;4952181;29;20444;-47
2022/08/22 08:50:40;;;;;;;5.40;5.00;;;29.30;41.40;;;;;;4951105;29;20486;-48
2022/08/22 08:53:25;;;;;;;5.20;4.80;;;29.40;41.30;;;;;;4951170;29;20534;-49
2022/08/22 08:56:08;;;;;;;5.83;5.40;;;29.60;41.60;;;;;;4951718;29;20431;-49
2022/08/22 08:59:24;;;;;;;5.23;4.73;;;29.60;41.10;;;;;;4952367;29;20456;-47
2022/08/22 09:02:11;;;;;;;5.97;5.47;;;29.70;41.30;;;;;;4929221;29;20499;-48
2022/08/22 09:05:11;;;;;;;4.77;4.30;;;29.60;41.20;;;;;;4949216;29;20538;-48
2022/08/22 09:07:43;;;;;;;4.97;4.47;;;29.70;40.80;;;;;;4928714;29;21030;-46
2022/08/22 09:10:56;;;;;;;5.67;5.10;;;30.10;40.90;;;;;;4950570;28;20473;-49
2022/08/22 09:14:02;;;;;;;5.50;5.10;;;30.30;39.90;;;;;;4929658;29;20502;-49
2022/08/22 09:17:06;;;;;;;7.22;4.38;;;30.20;40.50;;;;;;4953449;28;20435;-50
2022/08/22 09:19:43;;;;;;;5.33;4.87;;;30.40;40.30;;;;;;4955125;29;20274;-48
2022/08/22 09:22:28;;;;;;;5.10;4.70;;;30.60;40.10;;;;;;4954391;29;20533;-49
2022/08/22 09:25:00;;;;;;;5.10;4.70;;;30.90;39.50;;;;;;4954687;29;20473;-51
2022/08/22 09:27:37;;;;;;;5.87;5.37;;;31.00;39.40;;;;;;4955280;29;20507;-48
2022/08/22 09:30:10;;;;;;;6.00;5.50;;;31.30;39.10;;;;;;4954452;29;20530;-51
2022/08/22 09:32:51;;;;;;;6.50;4.70;;;31.40;39.30;;;;;;4951041;28;20446;-48
2022/08/22 09:35:23;;;;;;;7.00;4.70;;;31.40;39.40;;;;;;4953949;28;20444;-51
2022/08/22 09:37:49;;;;;;;5.60;5.10;;;31.50;38.40;;;;;;4955346;29;20435;-48
2022/08/22 09:40:41;;;;;;;5.80;5.40;;;31.70;37.70;;;;;;4954326;29;20479;-48
2022/08/22 09:43:12;;;;;;;5.63;5.17;;;31.90;37.80;;;;;;4954210;28;20200;-49
2022/08/22 09:45:58;;;;;;;5.13;4.63;;;31.90;38.00;;;;;;4954060;28;20455;-48
2022/08/22 09:48:33;;;;;;;5.63;4.97;;;32.00;37.80;;;;;;4953272;28;20479;-48
2022/08/22 09:51:18;;;;;;;5.20;4.70;;;32.00;37.00;;;;;;4945541;28;20535;-49
2022/08/22 09:53:46;;;;;;;5.90;5.40;;;31.90;37.30;;;;;;4951225;29;20815;-50
2022/08/22 09:56:25;;;;;;;5.37;5.00;;;31.90;37.40;;;;;;4955128;29;20440;-49
2022/08/22 09:58:53;;;;;;;5.27;4.83;;;32.00;37.20;;;;;;4949892;28;20550;-49
2022/08/22 10:01:36;;;;;;;4.93;4.63;;;31.90;36.30;;;;;;4954898;29;20843;-51
2022/08/22 10:04:23;;;;;;;5.17;4.77;;;31.90;37.00;;;;;;4935045;28;20494;-49
2022/08/22 10:07:18;;;;;;;5.23;4.83;;;32.30;36.90;;;;;;4945993;28;20454;-49
2022/08/22 10:10:21;;;;;;;4.97;4.57;;;32.50;35.90;;;;;;4947156;28;20459;-47
2022/08/22 10:12:56;;;;;;;5.50;5.00;;;32.60;35.70;;;;;;4951554;28;20482;-49
2022/08/22 10:15:29;;;;;;;5.63;5.23;;;32.80;34.80;;;;;;4954310;28;20428;-48
2022/08/22 10:18:15;;;;;;;5.67;5.20;;;32.90;34.80;;;;;;4953793;28;21283;-48
2022/08/22 10:20:59;;;;;;;6.00;5.27;;;33.00;34.40;;;;;;4920476;28;21053;-48
2022/08/22 10:23:33;;;;;;;5.30;4.90;;;32.90;34.80;;;;;;4953587;28;20451;-50
2022/08/22 10:26:20;;;;;;;4.90;4.60;;;33.20;34.40;;;;;;4953138;28;20452;-47
2022/08/22 10:29:06;;;;;;;5.10;4.70;;;33.40;33.30;;;;;;4946654;29;20439;-48
2022/08/22 10:31:42;;;;;;;4.53;4.13;;;32.60;33.90;;;;;;4951969;28;20450;-48
2022/08/22 10:34:20;;;;;;;4.70;4.30;;;32.60;34.60;;;;;;4951110;28;20447;-50
2022/08/22 10:37:17;;;;;;;4.53;4.23;;;32.90;33.70;;;;;;4954026;28;20479;-49
2022/08/22 10:39:56;;;;;;;5.97;4.90;;;33.20;32.70;;;;;;4951204;28;20530;-49
2022/08/22 10:42:24;;;;;;;4.63;4.33;;;33.30;33.30;;;;;;4952795;28;20464;-51
2022/08/22 10:45:29;;;;;;;5.30;4.57;;;33.20;33.00;;;;;;4953628;28;20452;-48
2022/08/22 10:47:57;;;;;;;6.60;4.80;;;33.20;32.90;;;;;;4952406;28;20450;-54
2022/08/22 10:50:30;;;;;;;4.77;4.37;;;32.80;33.30;;;;;;4949178;28;20449;-53
2022/08/22 10:53:32;;;;;;;5.70;4.20;;;32.60;33.20;;;;;;4950811;29;20463;-49
2022/08/22 10:56:30;;;;;;;4.40;3.93;;;32.50;33.40;;;;;;4943607;28;20502;-50
2022/08/22 10:59:28;;;;;;;4.73;4.33;;;33.00;33.20;;;;;;4950834;28;20451;-53
2022/08/22 11:02:06;;;;;;;4.67;4.27;;;33.20;32.40;;;;;;4951876;28;20822;-49
2022/08/22 11:04:53;;;;;;;6.63;4.23;;;33.30;32.40;;;;;;4945853;28;20454;-48
2022/08/22 11:07:42;;;;;;;4.60;4.20;;;33.70;31.30;;;;;;4952983;28;20451;-49
2022/08/22 11:10:49;;;;;;;4.23;3.93;;;33.60;30.40;;;;;;4941382;29;20459;-49
2022/08/22 11:13:57;;;;;;;3.83;3.53;;;33.80;30.30;;;;;;4940276;29;20501;-48
2022/08/22 11:16:51;;;;;;;3.50;3.30;;;33.60;30.10;;;;;;4950241;29;21166;-48
2022/08/22 11:19:38;;;;;;;3.67;3.37;;;33.80;28.90;;;;;;4952118;28;20506;-50
2022/08/22 11:22:22;;;;;;;3.50;3.20;;;34.20;28.50;;;;;;4952417;28;20451;-51
2022/08/22 11:24:53;;;;;;;3.73;3.43;;;34.50;28.00;;;;;;4949983;28;20884;-48
2022/08/22 11:27:39;;;;;;;3.90;3.60;;;34.70;27.00;;;;;;4954256;29;20443;-51
2022/08/22 11:30:13;;;;;;;3.43;3.20;;;35.20;26.10;;;;;;4952112;28;20451;-50
2022/08/22 11:32:57;;;;;;;4.07;3.57;;;35.30;26.20;;;;;;4952540;28;20464;-50
2022/08/22 11:35:40;;;;;;;3.80;3.50;;;35.50;26.40;;;;;;4949064;29;20518;-48
2022/08/22 11:38:33;;;;;;;6.40;3.53;;;35.40;26.10;;;;;;4951322;28;20859;-50
2022/08/22 11:41:02;;;;;;;3.77;3.37;;;35.10;26.40;;;;;;4941758;29;20495;-47
2022/08/22 11:43:52;;;;;;;7.20;3.67;;;35.20;26.60;;;;;;4950340;28;20439;-50
2022/08/22 11:46:36;;;;;;;6.87;3.80;;;34.60;26.90;;;;;;4951917;28;20494;-51
2022/08/22 11:49:03;;;;;;;3.77;3.47;;;35.10;27.20;;;;;;4938926;28;20455;-48
2022/08/22 11:52:00;;;;;;;4.13;3.83;;;35.30;27.00;;;;;;4948894;28;20459;-50
2022/08/22 11:55:01;;;;;;;3.50;3.27;;;35.60;26.90;;;;;;4943660;28;20822;-50
2022/08/22 11:57:41;;;;;;;3.97;3.57;;;35.70;26.40;;;;;;4946309;28;22346;-47
2022/08/22 12:00:36;;;;;;;3.27;3.07;;;36.20;25.60;;;;;;4951495;29;20664;-47
2022/08/22 12:03:26;;;;;;;3.80;3.50;;;36.40;24.90;;;;;;4949579;29;20947;-49
2022/08/22 12:06:40;;;;;;;3.60;3.30;;;36.10;25.60;;;;;;4952402;29;20470;-47
2022/08/22 12:09:30;;;;;;;4.30;3.67;;;35.60;26.50;;;;;;4947396;29;21273;-50
2022/08/22 12:12:18;;;;;;;3.97;3.67;;;36.10;26.70;;;;;;4951822;29;20470;-50
2022/08/22 12:15:22;;;;;;;4.00;3.63;;;36.60;26.60;;;;;;4949412;28;21013;-47
2022/08/22 12:18:11;;;;;;;4.03;3.50;;;36.90;26.10;;;;;;4922372;28;20485;-47
2022/08/22 12:21:10;;;;;;;5.33;4.10;;;37.10;25.00;;;;;;4946103;29;20491;-48
2022/08/22 12:24:13;;;;;;;4.37;3.90;;;37.20;25.00;;;;;;4950119;29;20451;-48
2022/08/22 12:26:45;;;;;;;3.77;3.57;;;37.10;25.30;;;;;;4949675;28;21623;-48
2022/08/22 12:29:31;;;;;;;3.20;3.00;;;37.30;25.10;;;;;;4948731;28;20490;-51
2022/08/22 12:32:32;;;;;;;4.37;3.97;;;37.50;25.20;;;;;;4949661;28;20887;-51
2022/08/22 12:35:09;;;;;;;3.70;3.40;;;37.60;24.60;;;;;;4943030;28;20473;-51
2022/08/22 12:37:47;;;;;;;4.20;3.90;;;37.70;24.30;;;;;;4949183;28;20443;-49
2022/08/22 12:40:57;;;;;;;3.97;3.67;;;37.90;24.60;;;;;;4945834;28;20494;-52
2022/08/22 12:43:26;;;;;;;3.90;3.60;;;37.90;24.10;;;;;;4942761;28;20491;-51
2022/08/22 12:46:11;;;;;;;5.57;3.70;;;36.50;25.00;;;;;;4947166;28;20522;-50
2022/08/22 12:48:59;;;;;;;4.00;3.50;;;36.10;25.70;;;;;;4945573;28;20482;-48
2022/08/22 12:51:27;;;;;;;3.47;3.23;;;36.40;26.20;;;;;;4947530;28;20462;-51
2022/08/22 12:54:14;;;;;;;3.57;3.30;;;36.70;25.50;;;;;;4945057;28;20527;-49
2022/08/22 12:57:10;;;;;;;4.60;3.57;;;37.00;25.30;;;;;;4950007;28;20443;-48
2022/08/22 12:59:41;;;;;;;3.23;3.03;;;37.40;24.60;;;;;;4944684;28;20943;-48
2022/08/22 13:02:17;;;;;;;4.20;3.90;;;37.60;24.50;;;;;;4949068;28;20439;-51
2022/08/22 13:04:49;;;;;;;4.90;3.23;;;37.60;24.50;;;;;;4946778;28;20482;-48
2022/08/22 13:07:29;;;;;;;3.90;3.50;;;37.90;24.40;;;;;;4946142;28;20459;-49
2022/08/22 13:10:13;;;;;;;3.97;3.67;;;37.90;23.70;;;;;;4943906;28;20461;-47
2022/08/22 13:12:48;;;;;;;3.90;3.60;;;38.00;23.50;;;;;;4949340;28;20541;-53
2022/08/22 13:15:20;;;;;;;4.00;3.70;;;38.00;24.10;;;;;;4947167;28;20442;-48
2022/08/22 13:17:49;;;;;;;3.50;3.20;;;38.10;24.30;;;;;;4938735;28;20459;-51
2022/08/22 13:20:37;;;;;;;4.20;3.60;;;38.20;23.90;;;;;;4943632;28;20491;-52
2022/08/22 13:23:13;;;;;;;3.50;3.30;;;38.10;23.30;;;;;;4947195;28;20502;-51
2022/08/22 13:26:08;;;;;;;3.83;3.40;;;37.80;23.80;;;;;;4946309;28;20474;-48
2022/08/22 13:28:43;;;;;;;3.87;3.57;;;37.60;23.80;;;;;;4948619;28;20454;-48
2022/08/22 13:31:22;;;;;;;3.80;3.50;;;37.60;23.90;;;;;;4946650;28;20455;-52
2022/08/22 13:33:48;;;;;;;3.60;3.30;;;37.50;24.40;;;;;;4947605;28;21013;-49
2022/08/22 13:36:19;;;;;;;3.80;3.50;;;37.70;23.90;;;;;;4947122;28;20456;-51
2022/08/22 13:39:22;;;;;;;3.80;3.60;;;37.90;23.60;;;;;;4949015;29;20520;-53
2022/08/22 13:41:55;;;;;;;4.00;3.40;;;38.00;23.70;;;;;;4949610;28;20467;-52
2022/08/22 13:44:26;;;;;;;3.47;3.20;;;37.50;24.00;;;;;;4948865;29;20458;-51
2022/08/22 13:46:54;;;;;;;3.87;3.60;;;37.20;24.00;;;;;;4944744;28;20615;-51
2022/08/22 13:49:34;;;;;;;3.93;3.63;;;37.20;24.00;;;;;;4949842;29;20459;-51
2022/08/22 13:52:24;;;;;;;3.57;2.93;;;37.40;24.30;;;;;;4946191;28;20886;-49
2022/08/22 13:54:59;;;;;;;3.67;3.43;;;37.50;24.00;;;;;;4948829;28;20451;-49
2022/08/22 13:57:35;;;;;;;3.50;3.20;;;37.70;23.80;;;;;;4951872;28;20458;-50
2022/08/22 14:00:09;;;;;;;3.90;3.60;;;37.70;23.50;;;;;;4941984;28;20585;-48